createdAt,value
2022-10-24T00:01:25.606Z,53.72
2022-10-24T00:03:53.343Z,54.05
2022-10-24T00:06:22.165Z,54.06
2022-10-24T00:08:50.644Z,53.57
2022-10-24T00:11:24.051Z,53.75
2022-10-24T00:13:52.629Z,53.63
2022-10-24T00:16:20.364Z,53.71
2022-10-24T00:18:48.753Z,53.81
2022-10-24T00:21:16.814Z,53.94
2022-10-24T00:23:44.786Z,53.52
2022-10-24T00:26:13.935Z,53.68
2022-10-24T00:28:41.775Z,53.98
2022-10-24T00:31:15.052Z,53.90
2022-10-24T00:33:44.055Z,54.06
2022-10-24T00:36:17.545Z,53.99
2022-10-24T00:38:45.437Z,54.15
2022-10-24T00:41:23.087Z,54.08
2022-10-24T00:43:51.987Z,53.98
2022-10-24T00:46:20.726Z,53.74
2022-10-24T00:48:55.142Z,53.86
2022-10-24T00:51:27.817Z,53.67
2022-10-24T00:54:02.649Z,54.10
2022-10-24T00:56:37.193Z,53.87
2022-10-24T00:59:07.564Z,53.62
2022-10-24T01:01:36.163Z,53.95
2022-10-24T01:04:04.497Z,53.68
2022-10-24T01:06:41.104Z,53.85
2022-10-24T01:09:45.918Z,53.76
2022-10-24T01:12:20.453Z,54.06
2022-10-24T01:15:09.805Z,53.96
2022-10-24T01:17:55.099Z,53.63
2022-10-24T01:20:37.881Z,53.77
2022-10-24T01:23:29.054Z,53.79
2022-10-24T01:26:09.215Z,53.93
2022-10-24T01:28:44.812Z,53.71
2022-10-24T01:31:29.736Z,53.94
2022-10-24T01:34:04.722Z,53.82
2022-10-24T01:36:43.747Z,53.35
2022-10-24T01:39:16.887Z,53.59
2022-10-24T01:41:46.236Z,53.62
2022-10-24T01:44:22.945Z,53.47
2022-10-24T01:46:56.360Z,53.55
2022-10-24T01:49:29.142Z,53.43
2022-10-24T01:52:01.581Z,53.49
2022-10-24T01:54:31.530Z,53.35
2022-10-24T01:56:59.314Z,53.13
2022-10-24T01:59:29.876Z,53.06
2022-10-24T02:02:06.634Z,53.00
2022-10-24T02:04:35.550Z,53.04
2022-10-24T02:07:07.674Z,53.08
2022-10-24T02:09:39.350Z,53.42
2022-10-24T02:12:10.636Z,53.19
2022-10-24T02:14:45.785Z,52.80
2022-10-24T02:17:13.473Z,53.12
2022-10-24T02:19:41.688Z,52.88
2022-10-24T02:22:12.264Z,53.04
2022-10-24T02:25:00.509Z,52.52
2022-10-24T02:27:41.803Z,52.57
2022-10-24T02:30:14.349Z,52.91
2022-10-24T02:32:45.969Z,52.26
2022-10-24T02:35:16.494Z,52.51
2022-10-24T02:37:49.487Z,51.58
2022-10-24T02:40:19.519Z,51.59
2022-10-24T02:42:51.460Z,51.29
2022-10-24T02:45:20.984Z,51.12
2022-10-24T02:47:51.514Z,50.72
2022-10-24T02:50:19.102Z,50.27
2022-10-24T02:52:47.365Z,50.24
2022-10-24T02:55:15.013Z,49.60
2022-10-24T02:57:42.730Z,49.81
2022-10-24T03:00:13.406Z,49.76
2022-10-24T03:02:41.124Z,49.62
2022-10-24T03:05:09.142Z,49.49
2022-10-24T03:07:36.776Z,49.58
2022-10-24T03:10:04.847Z,49.71
2022-10-24T03:12:32.594Z,49.37
2022-10-24T03:15:00.103Z,48.75
2022-10-24T03:17:28.130Z,48.94
2022-10-24T03:19:55.799Z,49.11
2022-10-24T03:22:25.443Z,49.06
2022-10-24T03:24:56.123Z,48.33
2022-10-24T03:27:25.832Z,48.31
2022-10-24T03:29:55.628Z,48.17
2022-10-24T03:32:23.693Z,48.39
2022-10-24T03:34:51.580Z,47.78
2022-10-24T03:37:19.392Z,47.52
2022-10-24T03:39:47.275Z,47.70
2022-10-24T03:42:15.030Z,47.90
2022-10-24T03:44:42.831Z,47.82
2022-10-24T03:47:10.493Z,47.29
2022-10-24T03:49:38.253Z,47.70
2022-10-24T03:52:06.178Z,46.67
2022-10-24T03:54:34.793Z,46.83
2022-10-24T03:57:02.741Z,46.85
2022-10-24T03:59:31.214Z,46.65
2022-10-24T04:02:01.549Z,45.98
2022-10-24T04:04:29.928Z,45.72
2022-10-24T04:06:58.697Z,45.39
2022-10-24T04:09:29.457Z,45.31
2022-10-24T04:11:57.137Z,44.85
2022-10-24T04:14:24.830Z,44.70
2022-10-24T04:16:52.438Z,43.97
2022-10-24T04:19:20.194Z,44.38
2022-10-24T04:21:48.793Z,43.92
2022-10-24T04:24:17.058Z,44.64
2022-10-24T04:26:45.080Z,44.77
2022-10-24T04:29:12.917Z,44.37
2022-10-24T04:31:41.545Z,44.83
2022-10-24T04:34:09.249Z,44.39
2022-10-24T04:36:38.159Z,43.85
2022-10-24T04:39:06.640Z,44.08
2022-10-24T04:41:34.253Z,43.77
2022-10-24T04:44:01.923Z,43.30
2022-10-24T04:46:37.302Z,43.68
2022-10-24T04:49:05.818Z,43.82
2022-10-24T04:51:33.477Z,43.52
2022-10-24T04:54:01.184Z,43.75
2022-10-24T04:56:28.767Z,43.12
2022-10-24T04:58:56.510Z,42.62
2022-10-24T05:01:25.582Z,42.80
2022-10-24T05:03:53.449Z,43.24
2022-10-24T05:06:22.126Z,43.02
2022-10-24T05:08:49.859Z,42.75
2022-10-24T05:11:17.424Z,43.42
2022-10-24T05:13:45.163Z,42.34
2022-10-24T05:16:12.853Z,42.45
2022-10-24T05:18:40.618Z,42.86
2022-10-24T05:21:08.209Z,42.40
2022-10-24T05:23:35.745Z,42.82
2022-10-24T05:26:03.608Z,42.83
2022-10-24T05:28:31.346Z,42.36
2022-10-24T05:30:59.371Z,48.05
2022-10-24T05:33:27.009Z,46.07
2022-10-24T05:35:54.757Z,45.60
2022-10-24T05:38:22.985Z,45.95
2022-10-24T05:40:51.764Z,45.77
2022-10-24T05:43:19.590Z,46.31
2022-10-24T05:48:16.964Z,46.98
2022-10-24T05:50:44.511Z,46.69
2022-10-24T05:53:13.209Z,46.57
2022-10-24T05:55:41.280Z,46.66
2022-10-24T05:58:08.892Z,46.43
2022-10-24T06:00:36.727Z,46.60
2022-10-24T06:03:04.435Z,46.09
2022-10-24T06:05:32.180Z,46.44
2022-10-24T06:08:00.160Z,46.26
2022-10-24T06:10:27.898Z,49.06
2022-10-24T06:12:57.194Z,48.43
2022-10-24T06:15:25.268Z,47.31
2022-10-24T06:17:53.103Z,46.66
2022-10-24T06:20:20.829Z,46.02
2022-10-24T06:22:50.763Z,45.63
2022-10-24T06:25:18.602Z,46.05
2022-10-24T06:27:46.166Z,44.74
2022-10-24T06:30:13.789Z,44.37
2022-10-24T06:32:44.396Z,44.36
2022-10-24T06:35:14.854Z,44.31
2022-10-24T06:37:47.133Z,44.32
2022-10-24T06:40:17.716Z,44.36
2022-10-24T06:42:45.638Z,44.49
2022-10-24T06:45:14.474Z,44.65
2022-10-24T06:47:42.518Z,45.00
2022-10-24T06:50:10.711Z,45.05
2022-10-24T06:52:38.287Z,45.37
2022-10-24T06:55:06.207Z,45.51
2022-10-24T06:57:33.841Z,45.37
2022-10-24T07:00:01.515Z,45.31
2022-10-24T07:02:31.018Z,45.29
2022-10-24T07:04:58.966Z,44.76
2022-10-24T07:07:26.916Z,44.69
2022-10-24T07:09:57.143Z,43.83
2022-10-24T07:12:26.228Z,44.60
2022-10-24T07:14:53.942Z,44.84
2022-10-24T07:17:21.827Z,45.08
2022-10-24T07:19:54.304Z,44.75
2022-10-24T07:22:21.937Z,44.95
2022-10-24T07:24:54.421Z,45.03
2022-10-24T07:27:23.764Z,45.03
2022-10-24T07:29:51.832Z,45.99
2022-10-24T07:32:20.491Z,45.76
2022-10-24T07:34:48.576Z,45.22
2022-10-24T07:37:17.336Z,45.50
2022-10-24T07:39:46.718Z,45.53
2022-10-24T07:42:15.541Z,44.71
2022-10-24T07:44:43.284Z,43.84
2022-10-24T07:47:12.247Z,42.83
2022-10-24T07:49:39.906Z,43.29
2022-10-24T07:52:07.399Z,42.94
2022-10-24T07:54:37.314Z,43.27
2022-10-24T07:57:05.894Z,43.78
2022-10-24T07:59:42.603Z,44.37
2022-10-24T08:02:13.041Z,44.05
2022-10-24T08:04:41.084Z,43.79
2022-10-24T08:07:13.672Z,43.06
2022-10-24T08:09:48.366Z,43.17
2022-10-24T08:12:16.050Z,41.93
2022-10-24T08:14:44.128Z,41.80
2022-10-24T08:17:11.824Z,42.38
2022-10-24T08:19:43.891Z,42.97
2022-10-24T08:22:12.411Z,42.97
2022-10-24T08:24:40.392Z,43.11
2022-10-24T08:27:08.216Z,43.42
2022-10-24T08:29:36.172Z,43.83
2022-10-24T08:32:04.560Z,44.22
2022-10-24T08:34:32.572Z,44.19
2022-10-24T08:37:00.606Z,44.65
2022-10-24T08:39:28.276Z,45.17
2022-10-24T08:42:04.394Z,45.57
2022-10-24T08:44:36.664Z,46.33
2022-10-24T08:47:19.065Z,46.66
2022-10-24T08:50:10.927Z,47.70
2022-10-24T08:53:03.029Z,47.92
2022-10-24T08:55:50.627Z,48.25
2022-10-24T08:58:38.239Z,48.33
2022-10-24T09:01:14.834Z,47.93
2022-10-24T09:03:56.095Z,47.91
2022-10-24T09:06:27.156Z,47.32
2022-10-24T09:09:19.919Z,46.14
2022-10-24T09:11:48.811Z,45.17
2022-10-24T09:14:19.915Z,43.49
2022-10-24T09:17:20.205Z,41.35
2022-10-24T09:20:19.925Z,41.36
2022-10-24T09:22:48.678Z,41.59
2022-10-24T09:25:20.715Z,41.00
2022-10-24T09:27:49.033Z,40.62
2022-10-24T09:30:21.092Z,40.60
2022-10-24T09:32:49.029Z,40.14
2022-10-24T09:35:23.128Z,40.13
2022-10-24T09:37:56.663Z,40.42
2022-10-24T09:40:31.802Z,40.22
2022-10-24T09:43:01.936Z,40.33
2022-10-24T09:45:42.051Z,40.55
2022-10-24T09:48:47.173Z,40.88
2022-10-24T09:51:47.925Z,41.73
2022-10-24T09:54:18.970Z,42.25
2022-10-24T09:56:54.208Z,41.96
2022-10-24T09:59:37.620Z,41.79
2022-10-24T10:02:12.988Z,42.14
2022-10-24T10:04:41.933Z,42.56
2022-10-24T10:07:21.083Z,42.66
2022-10-24T10:09:57.440Z,42.44
2022-10-24T10:12:41.801Z,41.76
2022-10-24T10:15:27.027Z,40.45
2022-10-24T10:17:58.545Z,39.92
2022-10-24T10:20:41.395Z,39.02
2022-10-24T10:23:32.054Z,39.07
2022-10-24T10:26:14.724Z,39.48
2022-10-24T10:29:26.862Z,38.14
2022-10-24T10:32:03.799Z,38.56
2022-10-24T10:34:37.416Z,38.98
2022-10-24T10:37:13.818Z,39.32
2022-10-24T10:39:56.703Z,39.79
2022-10-24T10:42:33.182Z,39.80
2022-10-24T10:45:10.762Z,39.77
2022-10-24T10:47:58.702Z,39.67
2022-10-24T10:50:36.514Z,39.41
2022-10-24T10:53:27.122Z,39.54
2022-10-24T10:56:17.624Z,40.66
2022-10-24T10:58:51.138Z,40.31
2022-10-24T11:01:30.937Z,40.27
2022-10-24T11:04:32.604Z,40.67
2022-10-24T11:07:26.563Z,40.59
2022-10-24T11:09:58.996Z,40.62
2022-10-24T11:12:38.566Z,40.52
2022-10-24T11:17:51.904Z,41.03
2022-10-24T11:20:27.038Z,41.19
2022-10-24T11:23:01.263Z,41.51
2022-10-24T11:25:35.183Z,41.67
2022-10-24T11:28:43.435Z,41.80
2022-10-24T11:31:25.581Z,41.83
2022-10-24T11:34:17.566Z,41.25
2022-10-24T11:37:06.808Z,42.89
2022-10-24T11:39:56.928Z,43.10
2022-10-24T11:42:30.453Z,42.83
2022-10-24T11:45:16.343Z,41.93
2022-10-24T11:48:13.485Z,41.78
2022-10-24T11:50:48.345Z,41.42
2022-10-24T11:53:31.697Z,41.53
2022-10-24T11:56:12.074Z,41.66
2022-10-24T11:58:52.872Z,42.28
2022-10-24T12:01:47.534Z,42.90
2022-10-24T12:04:40.250Z,43.18
2022-10-24T12:07:38.499Z,42.16
2022-10-24T12:10:28.110Z,42.37
2022-10-24T12:13:27.265Z,42.59
2022-10-24T12:16:19.147Z,43.18
2022-10-24T12:18:49.649Z,43.30
2022-10-24T12:21:26.312Z,43.19
2022-10-24T12:23:55.885Z,43.63
2022-10-24T12:26:31.941Z,43.68
2022-10-24T12:29:06.755Z,43.11
2022-10-24T12:31:37.753Z,43.57
2022-10-24T12:34:22.990Z,43.95
2022-10-24T12:37:30.293Z,43.84
2022-10-24T12:39:58.829Z,44.31
2022-10-24T12:42:26.363Z,43.95
2022-10-24T12:45:01.299Z,44.39
2022-10-24T12:47:42.597Z,45.42
2022-10-24T12:50:36.684Z,45.45
2022-10-24T12:53:17.745Z,45.13
2022-10-24T12:55:45.447Z,45.58
2022-10-24T12:58:35.966Z,45.88
2022-10-24T13:01:10.230Z,45.84
2022-10-24T13:04:04.892Z,45.75
2022-10-24T13:06:50.767Z,46.21
2022-10-24T13:09:42.332Z,46.02
2022-10-24T13:12:33.047Z,45.85
2022-10-24T13:15:03.648Z,46.29
2022-10-24T13:17:51.100Z,46.24
2022-10-24T13:20:25.101Z,46.32
2022-10-24T13:23:02.770Z,47.28
2022-10-24T13:25:35.529Z,47.21
2022-10-24T13:28:24.210Z,47.84
2022-10-24T13:31:17.422Z,48.64
2022-10-24T13:33:46.390Z,48.00
2022-10-24T13:36:27.796Z,48.90
2022-10-24T13:39:03.431Z,48.83
2022-10-24T13:41:42.963Z,49.32
2022-10-24T13:44:25.878Z,49.33
2022-10-24T13:47:01.142Z,49.12
2022-10-24T13:49:39.929Z,49.59
2022-10-24T13:52:17.221Z,49.09
2022-10-24T13:54:51.289Z,48.92
2022-10-24T13:57:30.576Z,49.07
2022-10-24T14:00:01.296Z,49.08
2022-10-24T14:02:41.850Z,49.02
2022-10-24T14:05:20.972Z,49.51
2022-10-24T14:07:49.817Z,49.01
2022-10-24T14:10:19.904Z,49.08
2022-10-24T14:12:52.087Z,49.20
2022-10-24T14:15:22.652Z,49.33
2022-10-24T14:18:02.566Z,49.07
2022-10-24T14:20:33.415Z,49.37
2022-10-24T14:23:02.079Z,48.83
2022-10-24T14:25:38.125Z,49.01
2022-10-24T14:28:17.547Z,48.90
2022-10-24T14:31:00.228Z,49.26
2022-10-24T14:33:30.270Z,48.71
2022-10-24T14:36:02.061Z,48.66
2022-10-24T14:38:30.954Z,48.64
2022-10-24T14:41:09.104Z,49.18
2022-10-24T14:43:42.780Z,49.33
2022-10-24T14:46:13.577Z,49.08
2022-10-24T14:48:46.740Z,48.95
2022-10-24T14:51:22.288Z,48.68
2022-10-24T14:53:51.037Z,48.68
2022-10-24T14:56:28.837Z,48.83
2022-10-24T14:58:58.485Z,48.38
2022-10-24T15:01:28.118Z,48.99
2022-10-24T15:03:58.635Z,48.80
2022-10-24T15:06:43.338Z,48.61
2022-10-24T15:09:10.951Z,49.45
2022-10-24T15:11:44.532Z,48.88
2022-10-24T15:14:37.191Z,50.46
2022-10-24T15:17:17.181Z,49.71
2022-10-24T15:19:47.005Z,49.54
2022-10-24T15:22:25.300Z,49.63
2022-10-24T15:24:55.251Z,49.26
2022-10-24T15:27:30.728Z,49.40
2022-10-24T15:29:58.544Z,48.81
2022-10-24T15:32:26.649Z,48.46
2022-10-24T15:34:55.405Z,48.80
2022-10-24T15:37:25.362Z,48.73
2022-10-24T15:39:53.961Z,48.96
2022-10-24T15:42:22.666Z,47.32
2022-10-24T15:44:50.571Z,45.35
2022-10-24T15:47:18.257Z,44.24
2022-10-24T15:49:46.152Z,44.67
2022-10-24T15:52:16.447Z,43.87
2022-10-24T15:54:44.269Z,43.96
2022-10-24T15:57:13.275Z,42.90
2022-10-24T15:59:40.969Z,43.54
2022-10-24T16:02:17.929Z,41.19
2022-10-24T16:04:45.798Z,42.40
2022-10-24T16:07:14.022Z,43.06
2022-10-24T16:09:41.913Z,43.07
2022-10-24T16:12:12.595Z,42.68
2022-10-24T16:14:40.351Z,42.63
2022-10-24T16:17:07.995Z,43.02
2022-10-24T16:19:35.568Z,42.04
2022-10-24T16:22:03.538Z,41.47
2022-10-24T16:24:31.310Z,38.39
2022-10-24T16:26:58.942Z,39.92
2022-10-24T16:29:26.665Z,39.14
2022-10-24T16:31:54.380Z,39.19
2022-10-24T16:34:23.570Z,39.61
2022-10-24T16:36:55.284Z,39.16
2022-10-24T16:39:24.204Z,39.31
2022-10-24T16:41:56.099Z,39.17
2022-10-24T16:44:23.668Z,39.60
2022-10-24T16:46:54.377Z,39.97
2022-10-24T16:49:22.198Z,40.02
2022-10-24T16:51:49.884Z,39.91
2022-10-24T16:54:19.231Z,39.89
2022-10-24T16:56:53.301Z,39.33
2022-10-24T16:59:21.710Z,40.04
2022-10-24T17:01:50.048Z,39.91
2022-10-24T17:04:18.023Z,39.85
2022-10-24T17:06:45.955Z,39.96
2022-10-24T17:09:14.612Z,39.76
2022-10-24T17:11:46.496Z,39.94
2022-10-24T17:14:14.582Z,40.00
2022-10-24T17:16:43.903Z,40.09
2022-10-24T17:19:16.294Z,40.29
2022-10-24T17:21:47.677Z,40.47
2022-10-24T17:24:18.141Z,40.17
2022-10-24T17:26:47.194Z,40.63
2022-10-24T17:29:35.223Z,40.38
2022-10-24T17:32:02.915Z,40.59
2022-10-24T17:34:32.779Z,41.56
2022-10-24T17:37:20.287Z,42.04
2022-10-24T17:39:57.354Z,41.71
2022-10-24T17:42:28.144Z,41.27
2022-10-24T17:44:55.878Z,41.34
2022-10-24T17:47:23.763Z,40.65
2022-10-24T17:49:51.500Z,40.20
2022-10-24T17:52:23.317Z,40.19
2022-10-24T17:54:51.231Z,40.33
2022-10-24T17:57:19.850Z,40.58
2022-10-24T17:59:47.650Z,40.36
2022-10-24T18:02:15.469Z,40.63
2022-10-24T18:04:45.586Z,40.72
2022-10-24T18:07:13.354Z,40.66
2022-10-24T18:09:41.240Z,40.61
2022-10-24T18:12:10.058Z,40.63
2022-10-24T18:14:37.962Z,40.50
2022-10-24T18:17:05.711Z,40.61
2022-10-24T18:19:34.966Z,40.56
2022-10-24T18:22:03.112Z,40.13
2022-10-24T18:24:30.791Z,40.38
2022-10-24T18:26:58.609Z,40.00
2022-10-24T18:29:26.551Z,40.26
2022-10-24T18:31:54.431Z,40.35
2022-10-24T18:34:22.053Z,40.24
2022-10-24T18:36:49.769Z,40.60
2022-10-24T18:39:17.428Z,41.20
2022-10-24T18:42:02.326Z,41.99
2022-10-24T18:44:38.401Z,41.58
2022-10-24T18:47:08.228Z,40.93
2022-10-24T18:49:36.093Z,40.74
2022-10-24T18:52:10.164Z,40.88
2022-10-24T18:54:51.327Z,40.73
2022-10-24T18:57:26.230Z,42.40
2022-10-24T18:59:55.035Z,44.19
2022-10-24T19:02:22.830Z,43.28
2022-10-24T19:05:06.707Z,42.33
2022-10-24T19:07:37.950Z,42.04
2022-10-24T19:10:08.220Z,41.89
2022-10-24T19:12:36.004Z,42.25
2022-10-24T19:15:04.125Z,41.75
2022-10-24T19:17:35.480Z,41.79
2022-10-24T19:20:03.607Z,41.74
2022-10-24T19:22:31.557Z,41.95
2022-10-24T19:24:59.541Z,42.15
2022-10-24T19:27:28.290Z,42.56
2022-10-24T19:29:56.344Z,42.78
2022-10-24T19:32:24.088Z,42.68
2022-10-24T19:34:52.537Z,42.83
2022-10-24T19:37:20.229Z,43.12
2022-10-24T19:39:48.545Z,42.81
2022-10-24T19:42:16.311Z,42.79
2022-10-24T19:47:16.324Z,42.47
2022-10-24T19:49:44.007Z,42.52
2022-10-24T19:52:11.774Z,42.04
2022-10-24T19:54:39.479Z,42.42
2022-10-24T19:57:07.063Z,42.21
2022-10-24T19:59:36.125Z,42.56
2022-10-24T20:02:05.343Z,42.15
2022-10-24T20:04:33.152Z,42.04
2022-10-24T20:07:00.743Z,42.58
2022-10-24T20:09:28.414Z,42.40
2022-10-24T20:11:56.372Z,42.55
2022-10-24T20:14:24.701Z,42.44
2022-10-24T20:16:52.515Z,42.44
2022-10-24T20:19:22.824Z,42.23
2022-10-24T20:21:50.649Z,42.37
2022-10-24T20:24:18.435Z,42.57
2022-10-24T20:26:46.406Z,42.38
2022-10-24T20:29:15.688Z,42.45
2022-10-24T20:31:47.170Z,42.41
2022-10-24T20:34:15.813Z,42.14
2022-10-24T20:36:47.260Z,42.17
2022-10-24T20:39:16.331Z,42.44
2022-10-24T20:41:44.181Z,42.50
2022-10-24T20:44:12.013Z,42.21
2022-10-24T20:46:39.814Z,42.27
2022-10-24T20:49:07.624Z,41.86
2022-10-24T20:51:35.704Z,41.87
2022-10-24T20:54:07.004Z,42.20
2022-10-24T20:56:39.876Z,42.34
2022-10-24T20:59:12.228Z,43.08
2022-10-24T21:01:40.106Z,42.61
2022-10-24T21:04:09.199Z,43.77
2022-10-24T21:06:37.668Z,44.59
2022-10-24T21:09:06.910Z,43.70
2022-10-24T21:11:36.105Z,43.08
2022-10-24T21:14:06.978Z,42.72
2022-10-24T21:16:35.327Z,42.73
2022-10-24T21:19:04.195Z,42.84
2022-10-24T21:21:32.170Z,42.62
2022-10-24T21:24:05.754Z,42.15
2022-10-24T21:26:38.510Z,42.36
2022-10-24T21:29:27.849Z,42.15
2022-10-24T21:31:55.885Z,41.68
2022-10-24T21:34:23.610Z,41.94
2022-10-24T21:36:51.694Z,41.91
2022-10-24T21:39:19.516Z,41.92
2022-10-24T21:41:47.265Z,41.72
2022-10-24T21:44:15.155Z,41.76
2022-10-24T21:46:43.501Z,41.66
2022-10-24T21:49:11.384Z,41.52
2022-10-24T21:51:41.396Z,41.52
2022-10-24T21:54:24.874Z,40.78
2022-10-24T21:56:52.772Z,41.75
2022-10-24T21:59:21.481Z,41.59
2022-10-24T22:01:51.445Z,41.13
2022-10-24T22:04:19.771Z,41.29
2022-10-24T22:06:47.819Z,41.08
2022-10-24T22:09:18.601Z,41.07
2022-10-24T22:11:46.789Z,41.11
2022-10-24T22:14:16.495Z,40.86
2022-10-24T22:16:44.707Z,40.99
2022-10-24T22:19:13.703Z,40.66
2022-10-24T22:21:44.421Z,40.69
2022-10-24T22:24:15.417Z,40.76
2022-10-24T22:26:43.901Z,40.81
2022-10-24T22:29:19.172Z,40.85
2022-10-24T22:31:48.085Z,40.89
2022-10-24T22:34:18.900Z,40.81
2022-10-24T22:37:05.535Z,40.80
2022-10-24T22:39:33.570Z,40.90
2022-10-24T22:42:01.364Z,41.15
2022-10-24T22:44:29.243Z,41.15
2022-10-24T22:47:12.021Z,41.01
2022-10-24T22:49:39.529Z,40.91
2022-10-24T22:52:11.414Z,41.18
2022-10-24T22:54:39.581Z,41.41
2022-10-24T22:57:07.852Z,41.01
2022-10-24T22:59:35.772Z,40.80
2022-10-24T23:02:32.029Z,41.33
2022-10-24T23:05:11.390Z,41.47
2022-10-24T23:07:41.942Z,41.22
2022-10-24T23:10:13.953Z,41.28
2022-10-24T23:12:41.848Z,41.23
2022-10-24T23:15:13.582Z,41.54
2022-10-24T23:17:41.780Z,41.70
2022-10-24T23:20:27.570Z,41.44
2022-10-24T23:23:09.107Z,41.47
2022-10-24T23:25:52.725Z,41.47
2022-10-24T23:28:42.261Z,41.49
2022-10-24T23:31:10.207Z,41.47
2022-10-24T23:33:38.277Z,41.84
2022-10-24T23:36:06.387Z,41.69
2022-10-24T23:38:34.368Z,41.33
2022-10-24T23:41:02.374Z,40.84
2022-10-24T23:43:30.378Z,40.94
2022-10-24T23:46:02.291Z,40.92
2022-10-24T23:49:02.455Z,40.27
2022-10-24T23:52:00.697Z,40.45
2022-10-24T23:54:31.890Z,40.42
2022-10-24T23:57:00.299Z,39.82
2022-10-24T23:59:28.574Z,39.66
